Terminal Aerodrome Forecast
Issued by NWS

Home | Current Version | Previous Version | Graphics & Text | Print | Product List | Glossary On
Versions: 1 2 3 4 5 6 7 8 9 10 11 12 13 14 15 16 17 18 19 20 21
567
FTUS43 KLSX 202006 AAA
TAFUIN
TAF AMD
KUIN 202006Z 2020/2118 14006KT 3SM BR OVC004
     FM202300 14006KT P6SM OVC008
     FM210100 16009KT 5SM BR OVC015
     FM210600 17010KT 2SM BR SCT110
     FM210900 17009KT 1SM BR SCT250
     FM211300 17010KT 2SM BR SCT250 WS015/23045KT
     FM211500 20011KT 6SM BR SCT250=

USA.gov is the U.S. government's official web portal to all federal, state and local government web resources and services.